createdAt,value
2018-08-22T00:00:14.596Z,101765.27
2018-08-22T00:02:44.034Z,101765.69
2018-08-22T00:05:14.441Z,101765.22
2018-08-22T00:07:43.945Z,101758.13
2018-08-22T00:10:13.450Z,101756.52
2018-08-22T00:12:43.263Z,101755.55
2018-08-22T00:15:13.596Z,101756.88
2018-08-22T00:17:43.026Z,101750.92
2018-08-22T00:20:12.532Z,101756.38
2018-08-22T00:22:41.983Z,101754.31
2018-08-22T00:25:12.068Z,101744.33
2018-08-22T00:27:42.817Z,101738.05
2018-08-22T00:30:13.401Z,101743.48
2018-08-22T00:32:43.199Z,101741.87
2018-08-22T00:35:12.715Z,101739.80
2018-08-22T00:37:42.301Z,101738.50
2018-08-22T00:40:12.025Z,101737.28
2018-08-22T00:42:41.512Z,101736.50
2018-08-22T00:45:11.742Z,101739.84
2018-08-22T00:47:41.354Z,101738.58
2018-08-22T00:50:11.911Z,101735.25
2018-08-22T00:52:41.828Z,101736.98
2018-08-22T00:55:11.270Z,101736.13
2018-08-22T00:57:41.235Z,101730.67
2018-08-22T01:00:10.846Z,101733.20
2018-08-22T01:02:42.206Z,101736.09
2018-08-22T01:05:14.442Z,101725.66
2018-08-22T01:07:43.952Z,101724.73
2018-08-22T01:10:14.047Z,101734.38
2018-08-22T01:12:43.519Z,101732.77
2018-08-22T01:15:13.838Z,101734.00
2018-08-22T01:17:43.286Z,101737.72
2018-08-22T01:20:12.771Z,101730.16
2018-08-22T01:22:42.218Z,101733.05
2018-08-22T01:25:12.694Z,101730.59
2018-08-22T01:27:46.294Z,101730.56
2018-08-22T01:30:16.831Z,101735.54
2018-08-22T01:32:46.448Z,101730.09
2018-08-22T01:35:17.391Z,101730.06
2018-08-22T01:37:46.839Z,101728.01
2018-08-22T01:40:16.666Z,101727.63
2018-08-22T01:42:46.132Z,101724.65
2018-08-22T01:45:15.728Z,101718.72
2018-08-22T01:47:46.673Z,101724.09
2018-08-22T01:50:16.148Z,101719.49
2018-08-22T01:52:45.722Z,101725.72
2018-08-22T01:55:15.247Z,101715.72
2018-08-22T01:57:45.170Z,101722.86
2018-08-22T02:00:15.257Z,101716.14
2018-08-22T02:02:45.873Z,101715.77
2018-08-22T02:05:15.962Z,101704.86
2018-08-22T02:07:45.526Z,101708.57
2018-08-22T02:10:15.113Z,101703.03
2018-08-22T02:12:44.939Z,101696.50
2018-08-22T02:15:14.850Z,101698.56
2018-08-22T02:17:45.548Z,101699.03
2018-08-22T02:20:16.133Z,101695.60
2018-08-22T02:22:45.614Z,101689.33
2018-08-22T02:25:15.201Z,101691.69
2018-08-22T02:27:44.685Z,101685.55
2018-08-22T02:30:14.365Z,101691.83
2018-08-22T02:32:44.236Z,101677.95
2018-08-22T02:35:14.586Z,101681.66
2018-08-22T02:37:44.185Z,101678.78
2018-08-22T02:40:13.669Z,101684.31
2018-08-22T02:42:43.206Z,101676.70
2018-08-22T02:45:14.097Z,101682.62
2018-08-22T02:47:44.260Z,101682.23
2018-08-22T02:50:13.905Z,101679.67
2018-08-22T02:53:14.097Z,101681.37
2018-08-22T02:55:43.692Z,101678.78
2018-08-22T02:58:14.538Z,101671.25
2018-08-22T03:00:44.225Z,101674.97
2018-08-22T03:03:13.874Z,101677.05
2018-08-22T03:05:43.447Z,101675.39
2018-08-22T03:08:13.172Z,101677.95
2018-08-22T03:12:12.192Z,101669.14
2018-08-22T03:14:42.400Z,101673.57
2018-08-22T03:17:33.676Z,101671.79
2018-08-22T03:20:03.224Z,101666.75
2018-08-22T03:22:39.292Z,101670.96
2018-08-22T03:25:08.942Z,101667.18
2018-08-22T03:27:40.864Z,101665.11
2018-08-22T03:30:10.505Z,101667.48
2018-08-22T03:32:41.018Z,101665.47
2018-08-22T03:35:11.105Z,101660.41
2018-08-22T03:37:40.584Z,101658.81
2018-08-22T03:40:10.696Z,101660.05
2018-08-22T03:42:41.209Z,101656.25
2018-08-22T03:45:11.717Z,101659.45
2018-08-22T03:47:41.322Z,101656.89
2018-08-22T03:50:10.885Z,101658.13
2018-08-22T03:52:40.680Z,101662.70
2018-08-22T03:55:10.218Z,101653.95
2018-08-22T03:57:40.665Z,101654.73
2018-08-22T04:00:10.948Z,101648.83
2018-08-22T04:02:42.030Z,101646.64
2018-08-22T04:08:13.835Z,101647.45
2018-08-22T04:10:45.131Z,101649.83
2018-08-22T04:13:15.733Z,101647.42
2018-08-22T04:15:46.919Z,101646.23
2018-08-22T04:18:17.590Z,101648.20
2018-08-22T04:20:47.416Z,101642.81
2018-08-22T04:23:17.037Z,101645.32
2018-08-22T04:25:49.482Z,101651.15
2018-08-22T04:28:19.721Z,101647.02
2018-08-22T04:30:51.839Z,101647.57
2018-08-22T04:33:21.423Z,101647.54
2018-08-22T04:35:51.620Z,101643.78
2018-08-22T04:38:21.042Z,101650.11
2018-08-22T04:40:50.887Z,101643.87
2018-08-22T04:43:20.497Z,101643.48
2018-08-22T04:45:50.587Z,101638.06
2018-08-22T04:48:21.885Z,101643.20
2018-08-22T04:50:51.540Z,101639.61
2018-08-22T04:53:36.637Z,101636.75
2018-08-22T04:56:07.435Z,101643.93
2018-08-22T04:58:36.905Z,101645.63
2018-08-22T05:01:07.942Z,101636.17
2018-08-22T05:03:37.490Z,101639.98
2018-08-22T05:06:07.966Z,101642.92
2018-08-22T05:08:40.631Z,101635.83
2018-08-22T05:11:11.312Z,101637.13
2018-08-22T05:13:43.142Z,101639.66
2018-08-22T05:16:14.660Z,101640.94
2018-08-22T05:18:44.299Z,101638.06
2018-08-22T05:21:15.917Z,101636.00
2018-08-22T05:23:46.092Z,101631.41
2018-08-22T05:26:16.049Z,101639.38
2018-08-22T05:28:47.271Z,101635.20
2018-08-22T05:31:17.953Z,101628.95
2018-08-22T05:33:48.260Z,101625.17
2018-08-22T05:36:17.848Z,101629.75
2018-08-22T05:38:48.917Z,101626.39
2018-08-22T05:41:39.994Z,101627.20
2018-08-22T05:44:09.711Z,101628.02
2018-08-22T05:46:39.467Z,101628.41
2018-08-22T05:49:09.340Z,101627.88
2018-08-22T05:54:14.320Z,101633.32
2018-08-22T05:56:43.901Z,101631.61
2018-08-22T05:59:13.458Z,101625.63
2018-08-22T06:01:43.863Z,101630.26
2018-08-22T06:04:13.458Z,101628.92
2018-08-22T06:06:44.985Z,101627.14
2018-08-22T06:09:14.707Z,101628.34
2018-08-22T06:11:44.940Z,101617.32
2018-08-22T06:14:14.493Z,101617.25
2018-08-22T06:16:44.048Z,101616.41
2018-08-22T06:19:13.762Z,101611.74
2018-08-22T06:21:44.010Z,101613.80
2018-08-22T06:24:16.297Z,101612.91
2018-08-22T06:26:46.006Z,101614.08
2018-08-22T06:29:32.519Z,101608.97
2018-08-22T06:32:03.080Z,101612.67
2018-08-22T06:34:32.530Z,101620.48
2018-08-22T06:37:02.090Z,101614.95
2018-08-22T06:39:34.429Z,101615.27
2018-08-22T06:42:05.512Z,101615.20
2018-08-22T06:44:36.088Z,101621.84
2018-08-22T06:47:06.478Z,101619.27
2018-08-22T06:49:36.117Z,101618.77
2018-08-22T06:52:06.850Z,101623.22
2018-08-22T06:54:36.845Z,101621.16
2018-08-22T06:57:06.486Z,101617.70
2018-08-22T06:59:36.063Z,101612.48
2018-08-22T07:02:05.649Z,101614.56
2018-08-22T07:04:36.371Z,101617.88
2018-08-22T07:07:06.513Z,101615.58
2018-08-22T07:09:37.014Z,101612.95
2018-08-22T07:12:06.673Z,101612.78
2018-08-22T07:14:36.445Z,101607.16
2018-08-22T07:17:54.102Z,101607.38
2018-08-22T07:20:23.779Z,101607.64
2018-08-22T07:22:53.439Z,101609.33
2018-08-22T07:25:23.007Z,101607.06
2018-08-22T07:27:53.400Z,101605.19
2018-08-22T07:30:23.341Z,101602.39
2018-08-22T07:32:53.036Z,101600.47
2018-08-22T07:35:22.569Z,101594.86
2018-08-22T07:37:54.838Z,101590.95
2018-08-22T07:40:24.490Z,101599.96
2018-08-22T07:42:54.162Z,101600.73
2018-08-22T07:45:25.827Z,101591.73
2018-08-22T07:47:56.239Z,101593.30
2018-08-22T07:50:26.923Z,101595.40
2018-08-22T07:53:01.665Z,101591.84
2018-08-22T07:55:33.855Z,101594.61
2018-08-22T07:58:03.864Z,101581.92
2018-08-22T08:00:33.620Z,101590.61
2018-08-22T08:03:04.487Z,101590.02
2018-08-22T08:05:44.130Z,101594.81
2018-08-22T08:08:14.487Z,101588.09
2018-08-22T08:10:44.724Z,101595.23
2018-08-22T08:13:20.389Z,101586.48
2018-08-22T08:15:49.964Z,101591.12
2018-08-22T08:18:19.787Z,101588.80
2018-08-22T08:20:49.289Z,101583.14
2018-08-22T08:23:18.806Z,101576.14
2018-08-22T08:25:48.368Z,101574.23
2018-08-22T08:28:18.391Z,101576.69
2018-08-22T08:30:48.352Z,101571.10
2018-08-22T08:33:17.891Z,101567.59
2018-08-22T08:35:47.558Z,101567.84
2018-08-22T08:38:17.036Z,101568.63
2018-08-22T08:40:46.476Z,101564.46
2018-08-22T08:43:15.973Z,101567.65
2018-08-22T08:45:45.539Z,101562.48
2018-08-22T08:48:15.031Z,101560.73
2018-08-22T08:50:44.492Z,101556.39
2018-08-22T08:53:14.131Z,101559.88
2018-08-22T08:55:43.563Z,101554.58
2018-08-22T08:58:13.205Z,101543.20
2018-08-22T09:00:42.870Z,101551.11
2018-08-22T09:03:12.349Z,101547.88
2018-08-22T09:05:41.890Z,101543.16
2018-08-22T09:08:11.340Z,101531.04
2018-08-22T09:10:40.845Z,101534.00
2018-08-22T09:13:11.750Z,101523.27
2018-08-22T09:15:41.972Z,101522.23
2018-08-22T09:18:11.606Z,101511.80
2018-08-22T09:20:41.555Z,101516.89
2018-08-22T09:23:11.071Z,101505.94
2018-08-22T09:25:40.508Z,101509.62
2018-08-22T09:28:10.059Z,101512.72
2018-08-22T09:30:39.448Z,101505.20
2018-08-22T09:33:08.997Z,101501.59
2018-08-22T09:35:38.590Z,101503.48
2018-08-22T09:38:08.140Z,101499.73
2018-08-22T09:40:37.804Z,101493.36
2018-08-22T09:43:07.526Z,101496.55
2018-08-22T09:45:37.106Z,101492.66
2018-08-22T09:48:06.899Z,101499.33
2018-08-22T09:50:36.408Z,101490.84
2018-08-22T09:53:06.082Z,101491.34
2018-08-22T09:55:35.542Z,101482.57
2018-08-22T09:58:05.007Z,101489.75
2018-08-22T10:00:40.019Z,101485.73
2018-08-22T10:03:09.443Z,101478.79
2018-08-22T10:05:38.942Z,101472.28
2018-08-22T10:08:08.473Z,101464.68
2018-08-22T10:10:37.926Z,101469.48
2018-08-22T10:13:07.409Z,101462.71
2018-08-22T10:15:36.972Z,101458.16
2018-08-22T10:18:07.031Z,101457.11
2018-08-22T10:20:36.676Z,101457.67
2018-08-22T10:23:06.187Z,101451.61
2018-08-22T10:25:35.960Z,101447.39
2018-08-22T10:28:05.636Z,101445.98
2018-08-22T10:30:35.244Z,101440.09
2018-08-22T10:33:04.762Z,101431.16
2018-08-22T10:35:34.302Z,101440.20
2018-08-22T10:38:03.830Z,101434.65
2018-08-22T10:40:33.421Z,101437.42
2018-08-22T10:43:03.099Z,101440.10
2018-08-22T10:45:32.578Z,101435.48
2018-08-22T10:48:02.105Z,101442.38
2018-08-22T10:50:31.600Z,101442.22
2018-08-22T10:53:01.040Z,101438.02
2018-08-22T10:55:30.440Z,101429.43
2018-08-22T10:57:59.970Z,101425.02
2018-08-22T11:00:29.572Z,101429.10
2018-08-22T11:02:59.125Z,101426.05
2018-08-22T11:05:28.740Z,101423.33
2018-08-22T11:07:58.197Z,101426.95
2018-08-22T11:10:27.737Z,101426.05
2018-08-22T11:12:57.244Z,101419.58
2018-08-22T11:15:27.121Z,101416.16
2018-08-22T11:17:57.040Z,101416.45
2018-08-22T11:20:30.213Z,101408.02
2018-08-22T11:23:16.684Z,101401.50
2018-08-22T11:26:03.026Z,101396.18
2018-08-22T11:28:49.454Z,101393.27
2018-08-22T11:31:35.776Z,101397.55
2018-08-22T11:34:23.257Z,101397.11
2018-08-22T11:37:04.467Z,101388.16
2018-08-22T11:39:34.248Z,101375.95
2018-08-22T11:42:05.022Z,101390.31
2018-08-22T11:44:34.458Z,101381.79
2018-08-22T11:47:03.982Z,101378.84
2018-08-22T11:49:34.452Z,101367.56
2018-08-22T11:52:03.921Z,101372.14
2018-08-22T11:54:33.450Z,101370.29
2018-08-22T11:57:03.217Z,101367.86
2018-08-22T11:59:32.876Z,101365.14
2018-08-22T12:02:02.400Z,101364.55
2018-08-22T12:04:31.851Z,101362.27
2018-08-22T12:07:01.506Z,101361.72
2018-08-22T12:09:31.066Z,101358.27
2018-08-22T12:12:00.720Z,101357.48
2018-08-22T12:14:30.165Z,101358.49
2018-08-22T12:17:00.190Z,101359.92
2018-08-22T12:19:29.643Z,101351.73
2018-08-22T12:21:59.077Z,101353.60
2018-08-22T12:24:28.612Z,101351.25
2018-08-22T12:26:58.075Z,101356.98
2018-08-22T12:29:27.635Z,101350.45
2018-08-22T12:31:57.111Z,101344.20
2018-08-22T12:34:26.619Z,101336.14
2018-08-22T12:36:57.136Z,101335.13
2018-08-22T12:39:28.346Z,101334.73
2018-08-22T12:41:57.885Z,101318.33
2018-08-22T12:44:27.484Z,101314.81
2018-08-22T12:46:57.049Z,101313.77
2018-08-22T12:49:27.128Z,101304.74
2018-08-22T12:51:56.646Z,101307.59
2018-08-22T12:54:26.105Z,101302.02
2018-08-22T12:56:56.001Z,101285.53
2018-08-22T12:59:26.320Z,101291.82
2018-08-22T13:01:55.797Z,101272.88
2018-08-22T13:04:25.292Z,101279.53
2018-08-22T13:06:56.913Z,101271.98
2018-08-22T13:09:26.329Z,101273.56
2018-08-22T13:11:56.489Z,101279.19
2018-08-22T13:14:27.564Z,101267.73
2018-08-22T13:16:57.072Z,101267.20
2018-08-22T13:19:26.923Z,101267.30
2018-08-22T13:21:56.390Z,101267.70
2018-08-22T13:24:26.228Z,101264.67
2018-08-22T13:26:55.645Z,101261.92
2018-08-22T13:29:25.157Z,101263.11
2018-08-22T13:31:54.685Z,101265.81
2018-08-22T13:34:24.200Z,101255.17
2018-08-22T13:36:53.639Z,101246.53
2018-08-22T13:39:24.255Z,101250.72
2018-08-22T13:41:54.044Z,101241.17
2018-08-22T13:44:23.777Z,101246.27
2018-08-22T13:46:53.413Z,101246.64
2018-08-22T13:49:23.068Z,101239.55
2018-08-22T13:51:52.583Z,101236.09
2018-08-22T13:54:22.333Z,101231.62
2018-08-22T13:56:53.042Z,101231.26
2018-08-22T13:59:22.472Z,101225.52
2018-08-22T14:01:51.949Z,101221.91
2018-08-22T14:04:21.511Z,101231.34
2018-08-22T14:06:51.617Z,101230.29
2018-08-22T14:09:21.175Z,101234.41
2018-08-22T14:11:53.970Z,101222.12
2018-08-22T14:14:25.183Z,101220.02
2018-08-22T14:16:54.709Z,101218.55
2018-08-22T14:19:24.182Z,101211.91
2018-08-22T14:21:55.198Z,101214.93
2018-08-22T14:24:24.629Z,101212.42
2018-08-22T14:26:54.092Z,101213.86
2018-08-22T14:29:24.153Z,101203.72
2018-08-22T14:31:53.757Z,101205.17
2018-08-22T14:34:24.718Z,101197.72
2018-08-22T14:36:54.182Z,101204.20
2018-08-22T14:39:24.156Z,101190.70
2018-08-22T14:41:53.614Z,101190.53
2018-08-22T14:44:23.113Z,101197.67
2018-08-22T14:46:52.587Z,101190.48
2018-08-22T14:49:22.068Z,101184.73
2018-08-22T14:51:51.574Z,101181.80
2018-08-22T14:54:21.072Z,101180.92
2018-08-22T14:56:50.525Z,101181.07
2018-08-22T14:59:20.040Z,101177.37
2018-08-22T15:01:49.516Z,101178.05
2018-08-22T15:04:19.765Z,101171.15
2018-08-22T15:06:49.244Z,101171.78
2018-08-22T15:09:21.242Z,101172.56
2018-08-22T15:11:50.769Z,101176.84
2018-08-22T15:14:20.404Z,101164.67
2018-08-22T15:16:49.871Z,101166.87
2018-08-22T15:19:22.007Z,101157.04
2018-08-22T15:21:52.852Z,101160.52
2018-08-22T15:24:22.407Z,101158.39
2018-08-22T15:26:51.912Z,101151.42
2018-08-22T15:29:21.778Z,101152.74
2018-08-22T15:31:51.956Z,101140.64
2018-08-22T15:34:21.446Z,101137.80
2018-08-22T15:36:50.920Z,101140.27
2018-08-22T15:39:21.364Z,101136.45
2018-08-22T15:41:50.807Z,101135.75
2018-08-22T15:44:20.578Z,101138.12
2018-08-22T15:46:52.557Z,101133.00
2018-08-22T15:49:21.994Z,101129.22
2018-08-22T15:51:51.873Z,101127.47
2018-08-22T15:54:25.420Z,101121.89
2018-08-22T15:56:55.762Z,101122.45
2018-08-22T15:59:25.685Z,101120.46
2018-08-22T16:01:55.174Z,101112.87
2018-08-22T16:04:27.214Z,101110.02
2018-08-22T16:07:02.466Z,101111.47
2018-08-22T16:09:33.121Z,101114.80
2018-08-22T16:12:03.191Z,101107.75
2018-08-22T16:14:33.601Z,101113.16
2018-08-22T16:17:03.007Z,101105.41
2018-08-22T16:19:34.944Z,101105.09
2018-08-22T16:22:06.044Z,101100.89
2018-08-22T16:24:35.575Z,101097.53
2018-08-22T16:27:06.366Z,101103.88
2018-08-22T16:29:35.770Z,101100.06
2018-08-22T16:32:05.249Z,101093.97
2018-08-22T16:34:36.024Z,101092.64
2018-08-22T16:37:05.821Z,101090.38
2018-08-22T16:39:44.134Z,101091.73
2018-08-22T16:42:14.082Z,101088.05
2018-08-22T16:44:44.227Z,101087.94
2018-08-22T16:47:18.809Z,101090.27
2018-08-22T16:49:49.257Z,101083.17
2018-08-22T16:52:19.159Z,101085.62
2018-08-22T16:54:53.888Z,101075.02
2018-08-22T16:57:23.434Z,101075.69
2018-08-22T16:59:52.937Z,101072.55
2018-08-22T17:02:25.373Z,101074.08
2018-08-22T17:04:54.935Z,101076.18
2018-08-22T17:07:25.206Z,101072.98
2018-08-22T17:09:55.749Z,101072.37
2018-08-22T17:12:25.263Z,101071.31
2018-08-22T17:14:55.784Z,101068.85
2018-08-22T17:17:25.605Z,101071.78
2018-08-22T17:19:55.867Z,101071.46
2018-08-22T17:22:41.906Z,101067.92
2018-08-22T17:25:15.041Z,101066.05
2018-08-22T17:27:44.648Z,101065.53
2018-08-22T17:30:15.124Z,101067.64
2018-08-22T17:32:45.864Z,101068.95
2018-08-22T17:35:16.198Z,101068.61
2018-08-22T17:37:59.111Z,101069.70
2018-08-22T17:40:29.013Z,101065.83
2018-08-22T17:43:00.464Z,101066.88
2018-08-22T17:45:36.944Z,101064.82
2018-08-22T17:48:07.279Z,101066.59
2018-08-22T17:50:37.881Z,101068.42
2018-08-22T17:53:10.315Z,101068.70
2018-08-22T17:55:43.353Z,101063.41
2018-08-22T17:58:14.292Z,101064.48
2018-08-22T18:00:45.259Z,101067.91
2018-08-22T18:03:16.010Z,101075.31
2018-08-22T18:05:45.504Z,101079.89
2018-08-22T18:08:16.820Z,101072.41
2018-08-22T18:10:53.993Z,101074.28
2018-08-22T18:13:23.478Z,101072.67
2018-08-22T18:15:53.088Z,101069.33
2018-08-22T18:18:23.478Z,101067.22
2018-08-22T18:20:54.717Z,101068.59
2018-08-22T18:23:25.734Z,101068.35
2018-08-22T18:26:02.759Z,101071.80
2018-08-22T18:28:33.582Z,101070.88
2018-08-22T18:31:03.663Z,101071.19
2018-08-22T18:33:34.127Z,101073.87
2018-08-22T18:36:05.675Z,101072.75
2018-08-22T18:38:35.141Z,101078.15
2018-08-22T18:41:09.264Z,101074.40
2018-08-22T18:43:39.801Z,101083.53
2018-08-22T18:46:09.614Z,101078.33
2018-08-22T18:48:39.064Z,101078.77
2018-08-22T18:51:09.345Z,101080.87
2018-08-22T18:53:38.848Z,101081.13
2018-08-22T18:56:16.095Z,101086.45
2018-08-22T18:58:45.655Z,101090.61
2018-08-22T19:01:15.084Z,101090.22
2018-08-22T19:03:44.710Z,101084.58
2018-08-22T19:06:14.370Z,101085.08
2018-08-22T19:08:46.462Z,101087.20
2018-08-22T19:11:16.673Z,101090.17
2018-08-22T19:13:46.103Z,101086.67
2018-08-22T19:16:15.736Z,101087.23
2018-08-22T19:18:46.127Z,101091.28
2018-08-22T19:21:15.706Z,101084.37
2018-08-22T19:23:50.360Z,101087.11
2018-08-22T19:26:20.037Z,101089.70
2018-08-22T19:28:58.252Z,101087.13
2018-08-22T19:31:27.794Z,101087.16
2018-08-22T19:33:57.570Z,101081.83
2018-08-22T19:36:27.068Z,101079.73
2018-08-22T19:38:56.585Z,101081.83
2018-08-22T19:41:29.930Z,101077.55
2018-08-22T19:43:59.408Z,101075.58
2018-08-22T19:46:28.837Z,101079.14
2018-08-22T19:49:00.785Z,101081.28
2018-08-22T19:51:30.449Z,101082.22
2018-08-22T19:54:07.069Z,101081.78
2018-08-22T19:56:36.550Z,101080.86
2018-08-22T19:59:06.497Z,101080.60
2018-08-22T20:01:37.461Z,101078.61
2018-08-22T20:04:06.990Z,101081.37
2018-08-22T20:06:36.436Z,101072.03
2018-08-22T20:09:06.894Z,101078.44
2018-08-22T20:11:36.517Z,101078.20
2018-08-22T20:14:07.222Z,101078.73
2018-08-22T20:16:36.869Z,101073.66
2018-08-22T20:19:06.349Z,101074.37
2018-08-22T20:21:39.326Z,101071.83
2018-08-22T20:24:13.551Z,101069.04
2018-08-22T20:26:51.192Z,101080.22
2018-08-22T20:29:20.963Z,101079.60
2018-08-22T20:31:50.517Z,101080.91
2018-08-22T20:34:20.145Z,101073.35
2018-08-22T20:36:50.741Z,101076.32
2018-08-22T20:39:20.611Z,101070.80
2018-08-22T20:41:56.694Z,101070.14
2018-08-22T20:44:26.141Z,101068.36
2018-08-22T20:46:56.135Z,101065.48
2018-08-22T20:49:25.761Z,101068.13
2018-08-22T20:51:59.299Z,101071.36
2018-08-22T20:54:30.211Z,101068.63
2018-08-22T20:57:00.510Z,101076.00
2018-08-22T20:59:32.531Z,101068.20
2018-08-22T21:02:04.499Z,101072.30
2018-08-22T21:04:34.691Z,101072.91
2018-08-22T21:07:04.837Z,101072.50
2018-08-22T21:09:34.363Z,101069.67
2018-08-22T21:12:05.218Z,101069.86
2018-08-22T21:14:34.716Z,101080.64
2018-08-22T21:17:04.205Z,101083.60
2018-08-22T21:19:33.683Z,101081.72
2018-08-22T21:22:04.294Z,101078.97
2018-08-22T21:24:34.546Z,101075.33
2018-08-22T21:27:04.104Z,101081.05
2018-08-22T21:29:36.734Z,101084.80
2018-08-22T21:32:07.652Z,101083.38
2018-08-22T21:34:37.289Z,101084.28
2018-08-22T21:37:30.159Z,101081.63
2018-08-22T21:39:59.796Z,101083.52
2018-08-22T21:42:33.028Z,101082.38
2018-08-22T21:45:04.502Z,101084.29
2018-08-22T21:47:33.956Z,101082.88
2018-08-22T21:50:03.925Z,101082.94
2018-08-22T21:52:53.809Z,101077.18
2018-08-22T21:55:28.409Z,101077.31
2018-08-22T21:57:59.247Z,101078.52
2018-08-22T22:00:34.878Z,101082.72
2018-08-22T22:03:04.489Z,101087.48
2018-08-22T22:05:44.127Z,101084.73
2018-08-22T22:08:13.659Z,101101.02
2018-08-22T22:10:43.594Z,101100.64
2018-08-22T22:13:13.271Z,101100.38
2018-08-22T22:15:45.759Z,101099.52
2018-08-22T22:18:16.830Z,101105.28
2018-08-22T22:20:51.236Z,101106.72
2018-08-22T22:23:20.668Z,101102.50
2018-08-22T22:25:50.118Z,101101.37
2018-08-22T22:28:25.843Z,101094.33
2018-08-22T22:30:55.294Z,101099.39
2018-08-22T22:33:24.826Z,101100.66
2018-08-22T22:35:55.375Z,101101.97
2018-08-22T22:38:25.656Z,101108.31
2018-08-22T22:40:55.458Z,101106.88
2018-08-22T22:43:25.570Z,101100.91
2018-08-22T22:45:55.057Z,101098.20
2018-08-22T22:48:43.713Z,101095.38
2018-08-22T22:51:13.309Z,101099.18
2018-08-22T22:53:42.842Z,101094.64
2018-08-22T22:56:12.284Z,101091.07
2018-08-22T22:58:42.919Z,101097.39
2018-08-22T23:01:13.149Z,101095.64
2018-08-22T23:03:43.976Z,101090.01
2018-08-22T23:06:13.548Z,101092.77
2018-08-22T23:08:43.507Z,101084.83
2018-08-22T23:11:14.071Z,101090.40
2018-08-22T23:13:43.921Z,101089.27
2018-08-22T23:16:14.087Z,101090.43
2018-08-22T23:18:45.229Z,101083.61
2018-08-22T23:21:14.772Z,101079.86
2018-08-22T23:23:44.332Z,101080.39
2018-08-22T23:26:20.678Z,101080.87
2018-08-22T23:28:50.737Z,101075.97
2018-08-22T23:31:21.659Z,101081.91
2018-08-22T23:33:52.021Z,101079.53
2018-08-22T23:36:21.665Z,101079.83
2018-08-22T23:38:51.188Z,101081.20
2018-08-22T23:41:20.740Z,101077.22
2018-08-22T23:43:52.735Z,101081.54
2018-08-22T23:46:22.175Z,101081.44
2018-08-22T23:48:58.942Z,101075.52
2018-08-22T23:51:28.458Z,101074.79
2018-08-22T23:54:00.480Z,101069.41
2018-08-22T23:56:31.703Z,101069.57
2018-08-22T23:59:01.302Z,101065.73
